Time;durP1;ratioP1;P1;durP2;ratioP2;P2;SDS_P1;SDS_P2;PMS_P1;PMS_P2;Temp;Humidity;BMP_temperature;BMP_pressure;BME280_temperature;BME280_humidity;BME280_pressure;Samples;Min_cycle;Max_cycle;Signal;HPM_P1;HPM_P2
2021/10/16 00:00:48;;;;;;;14.80;3.47;;;8.00;82.10;;;;;;4971839;28;20424;-74
2021/10/16 00:03:16;;;;;;;16.73;4.15;;;8.00;82.00;;;;;;4940426;29;20070;-74
2021/10/16 00:05:44;;;;;;;13.88;3.95;;;7.90;82.10;;;;;;4957032;29;20047;-74
2021/10/16 00:08:12;;;;;;;14.98;3.80;;;7.80;82.20;;;;;;4955820;29;20058;-74
2021/10/16 00:10:39;;;;;;;17.60;4.38;;;7.70;82.40;;;;;;4956477;29;20051;-74
2021/10/16 00:13:07;;;;;;;15.95;4.05;;;7.50;82.50;;;;;;4956553;29;20464;-76
2021/10/16 00:20:09;;;;;;;20.48;4.45;;;7.30;83.10;;;;;;4956941;29;20031;-74
2021/10/16 00:22:37;;;;;;;16.77;4.70;;;7.10;83.20;;;;;;4956849;29;20493;-74
2021/10/16 00:25:05;;;;;;;13.45;4.35;;;6.90;83.40;;;;;;4956062;29;20054;-75
2021/10/16 00:27:32;;;;;;;17.88;4.57;;;6.80;83.60;;;;;;4923627;29;20124;-74
2021/10/16 00:30:00;;;;;;;12.73;4.10;;;6.70;83.90;;;;;;4956467;29;20480;-74
2021/10/16 00:32:28;;;;;;;14.95;4.15;;;6.70;84.20;;;;;;4939108;29;20054;-74
2021/10/16 00:34:56;;;;;;;14.93;4.78;;;6.60;84.40;;;;;;4955989;29;20054;-75
2021/10/16 00:37:24;;;;;;;18.67;4.72;;;6.50;84.50;;;;;;4938709;29;20492;-74
2021/10/16 00:39:54;;;;;;;13.50;4.43;;;6.40;84.60;;;;;;4955217;29;20051;-74
2021/10/16 00:42:22;;;;;;;18.02;4.28;;;6.30;84.90;;;;;;4956174;29;20392;-74
2021/10/16 00:44:51;;;;;;;13.80;4.70;;;6.20;85.00;;;;;;4956636;29;20051;-75
2021/10/16 00:47:19;;;;;;;19.65;5.10;;;6.20;85.20;;;;;;4938608;29;20070;-74
2021/10/16 00:49:46;;;;;;;16.73;5.70;;;6.10;85.50;;;;;;4939189;29;20062;-75
2021/10/16 00:52:14;;;;;;;15.65;5.53;;;6.00;85.70;;;;;;4970784;28;20051;-75
2021/10/16 00:54:42;;;;;;;15.48;5.10;;;6.00;85.80;;;;;;4923437;29;20051;-74
2021/10/16 00:57:11;;;;;;;17.17;5.53;;;5.90;85.90;;;;;;4971497;28;20050;-75
2021/10/16 00:59:40;;;;;;;17.65;5.47;;;5.80;86.10;;;;;;4938628;29;20059;-74
2021/10/16 01:02:08;;;;;;;18.45;5.85;;;5.80;86.40;;;;;;4954570;28;20517;-74
2021/10/16 01:04:36;;;;;;;13.20;5.57;;;5.70;86.50;;;;;;4907889;29;20496;-74
2021/10/16 01:07:11;;;;;;;16.00;5.85;;;5.60;86.80;;;;;;4939443;29;20046;-75
2021/10/16 01:09:42;;;;;;;19.90;6.47;;;5.60;87.00;;;;;;4955412;29;20051;-74
2021/10/16 01:12:11;;;;;;;21.00;6.13;;;5.60;87.10;;;;;;4939124;29;20040;-74
2021/10/16 01:14:58;;;;;;;14.50;6.35;;;5.60;87.20;;;;;;4938244;29;20059;-75
2021/10/16 01:17:26;;;;;;;19.38;6.97;;;5.60;87.30;;;;;;4939245;29;20043;-74
2021/10/16 01:20:12;;;;;;;17.83;6.13;;;5.60;87.20;;;;;;4938811;29;20074;-74
2021/10/16 01:22:41;;;;;;;20.10;6.75;;;5.50;87.30;;;;;;4971814;28;20051;-73
2021/10/16 01:25:11;;;;;;;23.52;6.88;;;5.50;87.40;;;;;;4940130;29;20051;-74
2021/10/16 01:27:41;;;;;;;16.40;6.90;;;5.50;87.50;;;;;;4938607;29;20051;-74
2021/10/16 01:30:12;;;;;;;17.50;6.65;;;5.50;87.50;;;;;;4938642;29;20047;-74
2021/10/16 01:32:41;;;;;;;16.05;6.70;;;5.50;87.60;;;;;;4923287;29;20050;-74
2021/10/16 01:39:40;;;;;;;19.00;7.70;;;5.30;88.00;;;;;;4954849;28;20379;-75
2021/10/16 01:42:15;;;;;;;29.58;8.90;;;5.20;87.80;;;;;;4937754;29;20051;-74
2021/10/16 01:44:52;;;;;;;19.13;7.70;;;5.10;88.10;;;;;;4938515;29;20058;-74
2021/10/16 01:47:20;;;;;;;20.27;8.75;;;5.00;88.20;;;;;;4970687;28;20396;-75
2021/10/16 01:49:48;;;;;;;20.30;8.05;;;5.00;88.40;;;;;;4955831;29;20501;-75
2021/10/16 01:52:16;;;;;;;18.45;8.10;;;4.90;88.50;;;;;;4938700;29;20465;-74
2021/10/16 01:54:46;;;;;;;20.15;7.82;;;4.80;88.60;;;;;;4954099;28;20504;-74
2021/10/16 01:57:14;;;;;;;21.70;8.35;;;4.80;88.80;;;;;;4969970;28;20058;-75
2021/10/16 01:59:51;;;;;;;16.83;8.63;;;4.80;89.00;;;;;;4938118;29;20058;-75
2021/10/16 02:02:34;;;;;;;19.73;8.10;;;4.60;88.90;;;;;;4955469;29;20043;-75
2021/10/16 02:05:20;;;;;;;26.50;9.18;;;4.50;89.00;;;;;;4954772;29;20055;-75
2021/10/16 02:08:03;;;;;;;;;;;4.40;89.30;;;;;;4938814;29;20054;-75
2021/10/16 02:10:33;;;;;;;20.80;8.32;;;4.30;89.40;;;;;;4969989;28;19922;-75
2021/10/16 02:13:01;;;;;;;22.05;8.75;;;4.30;89.40;;;;;;4938101;29;20472;-74
2021/10/16 02:15:34;;;;;;;21.30;9.13;;;4.30;89.40;;;;;;4952525;29;20047;-74
2021/10/16 02:18:22;;;;;;;20.65;9.70;;;4.40;89.50;;;;;;4954271;29;20114;-74
2021/10/16 02:20:50;;;;;;;20.88;9.07;;;4.50;89.40;;;;;;4938492;29;20043;-75
2021/10/16 02:23:22;;;;;;;19.88;9.63;;;4.50;89.40;;;;;;4937224;29;20467;-74
2021/10/16 02:25:50;;;;;;;24.63;10.48;;;4.50;89.40;;;;;;4954652;29;20051;-74
2021/10/16 02:28:18;;;;;;;20.80;9.40;;;4.60;89.40;;;;;;4922506;29;20048;-74
2021/10/16 02:30:58;;;;;;;23.55;9.63;;;4.60;89.40;;;;;;4937971;29;20047;-74
2021/10/16 02:33:26;;;;;;;21.35;8.80;;;4.80;89.40;;;;;;4938048;29;20047;-74
2021/10/16 02:35:53;;;;;;;27.80;8.35;;;4.80;89.40;;;;;;4953897;29;20066;-74
2021/10/16 02:38:21;;;;;;;21.77;9.10;;;4.90;89.30;;;;;;4938232;29;20047;-75
2021/10/16 02:40:49;;;;;;;20.20;8.43;;;5.00;89.30;;;;;;4936737;29;20059;-75
2021/10/16 02:43:17;;;;;;;17.92;7.82;;;5.00;89.20;;;;;;4938118;29;20043;-74
2021/10/16 02:45:45;;;;;;;18.60;8.00;;;5.20;89.20;;;;;;4937793;29;20084;-75
2021/10/16 02:48:13;;;;;;;17.15;8.90;;;5.20;89.10;;;;;;4937406;29;20047;-75
2021/10/16 02:50:42;;;;;;;21.58;9.18;;;5.30;89.10;;;;;;4940506;29;20051;-74
2021/10/16 02:53:09;;;;;;;24.08;8.93;;;5.30;89.10;;;;;;4941282;29;20043;-74
2021/10/16 02:55:37;;;;;;;20.42;9.55;;;5.30;89.00;;;;;;4973337;28;20051;-74
2021/10/16 02:58:06;;;;;;;15.88;8.55;;;5.40;88.90;;;;;;4940930;29;20047;-75
2021/10/16 03:00:36;;;;;;;19.88;7.78;;;5.30;88.90;;;;;;4941592;29;20070;-75
2021/10/16 03:03:06;;;;;;;15.55;8.57;;;5.30;89.00;;;;;;4940306;29;20047;-74
2021/10/16 03:10:09;;;;;;;14.45;8.48;;;5.20;89.40;;;;;;4957683;29;20054;-75
2021/10/16 03:12:37;;;;;;;24.73;9.60;;;5.10;89.30;;;;;;4925560;29;20059;-74
2021/10/16 03:15:05;;;;;;;22.30;9.63;;;5.10;89.40;;;;;;4941079;29;20055;-74
2021/10/16 03:22:08;;;;;;;25.50;9.50;;;5.00;89.60;;;;;;4961027;29;20028;-74
2021/10/16 03:24:39;;;;;;;19.10;8.60;;;5.00;89.50;;;;;;4941615;29;20047;-74
2021/10/16 03:27:06;;;;;;;22.67;8.80;;;4.90;89.60;;;;;;4940816;29;20043;-74
2021/10/16 03:29:34;;;;;;;17.67;8.45;;;4.90;89.60;;;;;;4971921;28;20063;-74
2021/10/16 03:32:02;;;;;;;16.45;8.88;;;4.80;89.80;;;;;;4925138;29;20063;-74
2021/10/16 03:34:30;;;;;;;28.17;10.18;;;4.80;90.10;;;;;;4940696;29;20393;-74
2021/10/16 03:36:58;;;;;;;23.60;10.05;;;4.70;90.30;;;;;;4939824;29;20056;-74
2021/10/16 03:39:28;;;;;;;31.63;10.18;;;4.70;90.30;;;;;;4925413;29;20055;-75
2021/10/16 03:41:58;;;;;;;22.40;9.45;;;4.70;90.20;;;;;;4925378;29;20385;-75
2021/10/16 03:44:25;;;;;;;17.13;9.93;;;4.60;90.30;;;;;;4971574;28;20055;-74
2021/10/16 03:46:55;;;;;;;20.00;9.63;;;4.50;90.40;;;;;;4940686;29;20054;-74
2021/10/16 03:49:23;;;;;;;20.20;10.07;;;4.50;90.50;;;;;;4924757;29;20051;-75
2021/10/16 03:51:51;;;;;;;21.35;10.88;;;4.40;90.60;;;;;;4957755;29;20055;-74
2021/10/16 03:54:19;;;;;;;26.75;12.32;;;4.30;90.70;;;;;;4909461;29;20489;-74
2021/10/16 03:56:47;;;;;;;23.98;11.32;;;4.30;90.80;;;;;;4973038;28;20461;-75
2021/10/16 03:59:15;;;;;;;30.52;12.82;;;4.30;90.90;;;;;;4940575;29;20039;-74
2021/10/16 04:06:16;;;;;;;29.15;12.15;;;4.30;91.00;;;;;;4956971;29;20505;-75
2021/10/16 04:08:43;;;;;;;22.77;11.18;;;4.30;90.80;;;;;;4957172;29;20055;-74
2021/10/16 04:11:11;;;;;;;23.45;10.75;;;4.30;90.90;;;;;;4951312;29;20054;-74
2021/10/16 04:13:39;;;;;;;22.77;11.95;;;4.20;90.90;;;;;;4955731;29;20047;-75
2021/10/16 04:16:07;;;;;;;30.90;12.10;;;4.20;91.10;;;;;;4939603;29;20054;-75
2021/10/16 04:18:35;;;;;;;31.83;12.82;;;4.10;91.20;;;;;;4971636;28;20098;-74
2021/10/16 04:21:03;;;;;;;28.73;13.32;;;4.10;91.30;;;;;;4955319;29;20058;-74
2021/10/16 04:23:31;;;;;;;33.28;12.38;;;4.10;91.30;;;;;;4955463;29;20058;-74
2021/10/16 04:30:51;;;;;;;28.92;11.73;;;4.10;91.50;;;;;;4962879;28;20038;-74
2021/10/16 04:33:19;;;;;;;29.40;12.75;;;4.10;91.30;;;;;;4939339;29;20056;-74
2021/10/16 04:35:47;;;;;;;29.70;13.35;;;4.10;91.30;;;;;;4955126;29;20498;-75
2021/10/16 04:38:15;;;;;;;23.60;13.25;;;4.20;91.30;;;;;;4971262;28;20047;-74
2021/10/16 04:45:18;;;;;;;23.92;12.85;;;4.20;91.40;;;;;;4956488;28;20050;-74
2021/10/16 04:47:46;;;;;;;28.20;11.27;;;4.30;91.20;;;;;;4955596;28;20408;-74
2021/10/16 04:50:14;;;;;;;20.48;11.95;;;4.30;91.20;;;;;;4955633;29;20055;-74
2021/10/16 04:52:46;;;;;;;24.02;11.02;;;4.30;91.20;;;;;;4954551;29;20428;-74
2021/10/16 04:55:23;;;;;;;18.20;10.48;;;4.30;91.30;;;;;;4924831;29;20405;-74
2021/10/16 04:57:52;;;;;;;20.58;11.05;;;4.30;91.30;;;;;;4955691;29;20506;-74
2021/10/16 05:00:25;;;;;;;19.63;10.77;;;4.30;91.30;;;;;;4939800;29;20066;-74
2021/10/16 05:02:52;;;;;;;27.90;12.52;;;4.40;91.30;;;;;;4955464;29;20070;-74
2021/10/16 05:05:20;;;;;;;24.80;10.27;;;4.50;91.20;;;;;;4955226;29;20055;-73
2021/10/16 05:07:48;;;;;;;24.52;11.30;;;4.50;91.20;;;;;;4939304;29;20488;-74
2021/10/16 05:10:16;;;;;;;30.95;11.25;;;4.40;91.20;;;;;;4954702;29;20458;-74
2021/10/16 05:12:43;;;;;;;24.80;12.20;;;4.50;91.30;;;;;;4970199;28;20062;-74
2021/10/16 05:15:11;;;;;;;24.10;10.45;;;4.50;91.30;;;;;;4954487;29;20511;-74
2021/10/16 05:17:39;;;;;;;20.88;10.55;;;4.50;91.20;;;;;;4954385;29;20058;-74
2021/10/16 05:20:15;;;;;;;23.48;12.25;;;4.50;91.20;;;;;;4971336;28;20055;-74
2021/10/16 05:22:52;;;;;;;30.02;13.70;;;4.50;91.30;;;;;;4956994;29;20051;-74
2021/10/16 05:25:20;;;;;;;22.67;12.85;;;4.60;91.30;;;;;;4939095;29;20052;-74
2021/10/16 05:27:50;;;;;;;23.25;12.05;;;4.60;91.30;;;;;;4954581;29;20473;-74
2021/10/16 05:30:18;;;;;;;25.23;11.98;;;4.70;91.30;;;;;;4971091;28;20392;-74
2021/10/16 05:32:48;;;;;;;21.77;11.10;;;4.80;91.30;;;;;;4970196;28;20047;-75
2021/10/16 05:35:18;;;;;;;21.23;10.60;;;4.80;91.20;;;;;;4954603;29;20062;-75
2021/10/16 05:37:46;;;;;;;21.10;12.43;;;4.80;91.20;;;;;;4954609;29;20043;-74
2021/10/16 05:40:14;;;;;;;22.83;10.40;;;4.90;91.20;;;;;;4938193;29;20422;-74
2021/10/16 05:42:43;;;;;;;20.42;10.57;;;4.90;91.20;;;;;;4970539;28;20043;-74
2021/10/16 05:45:11;;;;;;;19.92;10.68;;;5.00;91.10;;;;;;4953895;29;20103;-75
2021/10/16 05:47:43;;;;;;;22.58;10.70;;;5.00;91.10;;;;;;4954027;29;20393;-74
2021/10/16 05:50:12;;;;;;;20.63;10.70;;;5.10;91.00;;;;;;4954628;29;20429;-74
2021/10/16 05:52:40;;;;;;;23.58;10.98;;;5.10;91.00;;;;;;4954664;29;20080;-76
2021/10/16 05:55:08;;;;;;;18.13;10.68;;;5.20;91.00;;;;;;4954270;29;20047;-73
2021/10/16 05:57:37;;;;;;;19.95;11.02;;;5.30;90.90;;;;;;4953885;29;20051;-74
2021/10/16 06:00:06;;;;;;;21.48;10.13;;;5.30;90.80;;;;;;4954005;29;20392;-74
2021/10/16 06:02:43;;;;;;;24.50;10.98;;;5.30;90.80;;;;;;4954514;29;20051;-73
2021/10/16 06:05:18;;;;;;;19.75;11.18;;;5.50;90.70;;;;;;4953866;29;20055;-74
2021/10/16 06:07:46;;;;;;;22.48;10.65;;;5.50;90.70;;;;;;4953338;29;20408;-74
2021/10/16 06:10:14;;;;;;;19.58;10.32;;;5.50;90.70;;;;;;4938092;29;20519;-73
2021/10/16 06:12:43;;;;;;;19.13;11.15;;;5.60;90.60;;;;;;4953687;29;20151;-74
2021/10/16 06:15:13;;;;;;;18.90;10.38;;;5.70;90.50;;;;;;4970174;28;20058;-74
2021/10/16 06:17:41;;;;;;;21.90;10.85;;;5.70;90.40;;;;;;4969933;28;20381;-73
2021/10/16 06:20:12;;;;;;;26.17;11.32;;;5.70;90.40;;;;;;4954334;29;20043;-74
2021/10/16 06:22:40;;;;;;;19.15;10.82;;;5.80;90.30;;;;;;4954149;29;20484;-74
2021/10/16 06:25:08;;;;;;;18.25;10.90;;;5.80;90.30;;;;;;4954894;28;20051;-74
2021/10/16 06:27:36;;;;;;;20.38;11.95;;;5.80;90.30;;;;;;4958088;29;20481;-74
2021/10/16 06:30:05;;;;;;;20.50;11.10;;;5.90;90.30;;;;;;4941495;29;20055;-74
2021/10/16 06:32:32;;;;;;;18.25;10.20;;;6.00;90.20;;;;;;4957256;29;20090;-74
2021/10/16 06:35:02;;;;;;;19.77;10.35;;;6.00;90.20;;;;;;4957136;29;20055;-74
2021/10/16 06:37:29;;;;;;;25.20;10.30;;;6.00;90.20;;;;;;4958126;29;20074;-74
2021/10/16 06:39:57;;;;;;;24.55;10.65;;;6.00;90.20;;;;;;4974098;28;20039;-74
2021/10/16 06:42:27;;;;;;;20.83;11.40;;;6.10;90.10;;;;;;4973366;28;20416;-74
2021/10/16 06:45:30;;;;;;;21.33;12.10;;;6.10;90.10;;;;;;4918263;29;20056;-74
2021/10/16 06:48:10;;;;;;;23.95;11.38;;;6.20;90.10;;;;;;4902917;29;20072;-74
2021/10/16 06:50:55;;;;;;;25.45;12.98;;;6.20;90.10;;;;;;4917389;29;20405;-74
2021/10/16 06:53:23;;;;;;;19.60;11.68;;;6.20;90.00;;;;;;4918328;29;20153;-74
2021/10/16 06:55:51;;;;;;;21.42;11.88;;;6.30;90.10;;;;;;4918669;29;20422;-74
2021/10/16 06:58:19;;;;;;;25.25;13.00;;;6.30;90.10;;;;;;4917968;29;20056;-74
2021/10/16 07:00:48;;;;;;;22.23;12.40;;;6.30;90.20;;;;;;4902844;29;20056;-74
2021/10/16 07:03:35;;;;;;;20.70;12.15;;;6.30;90.20;;;;;;4918398;29;20509;-74
2021/10/16 07:06:03;;;;;;;22.63;12.20;;;6.40;90.20;;;;;;4902175;29;20071;-74
2021/10/16 07:08:32;;;;;;;19.90;12.02;;;6.50;90.10;;;;;;4917608;29;20052;-74
2021/10/16 07:10:59;;;;;;;22.42;13.55;;;6.50;90.10;;;;;;4917730;29;20064;-75
2021/10/16 07:13:27;;;;;;;28.50;14.05;;;6.60;90.10;;;;;;4902513;29;20525;-75
2021/10/16 07:15:55;;;;;;;34.58;16.45;;;6.60;90.10;;;;;;4918466;29;20052;-75
2021/10/16 07:18:24;;;;;;;35.97;16.75;;;6.70;90.10;;;;;;4918097;29;20060;-74
2021/10/16 07:20:52;;;;;;;28.38;14.20;;;6.70;90.10;;;;;;4959895;29;20413;-75
2021/10/16 07:23:39;;;;;;;26.20;14.10;;;6.70;90.00;;;;;;4957175;29;20481;-75
2021/10/16 07:26:08;;;;;;;26.60;14.68;;;6.80;90.10;;;;;;4957842;29;20055;-75
2021/10/16 07:28:35;;;;;;;25.00;13.65;;;6.80;90.10;;;;;;4956361;29;20050;-75
2021/10/16 07:31:03;;;;;;;31.17;15.07;;;6.90;90.00;;;;;;4956557;28;20493;-75
2021/10/16 07:33:30;;;;;;;25.75;15.70;;;6.90;90.00;;;;;;4957024;29;20051;-75
2021/10/16 07:35:58;;;;;;;27.95;13.93;;;7.00;90.00;;;;;;4956804;28;20047;-75
2021/10/16 07:38:25;;;;;;;23.02;13.85;;;7.00;90.00;;;;;;4957696;28;20055;-75
2021/10/16 07:40:53;;;;;;;29.63;15.73;;;7.10;90.00;;;;;;4956782;29;20051;-75
2021/10/16 07:43:21;;;;;;;22.95;14.93;;;7.20;90.00;;;;;;4956150;29;20051;-75
2021/10/16 07:45:49;;;;;;;22.92;13.32;;;7.20;90.10;;;;;;4956836;29;20483;-75
2021/10/16 07:48:16;;;;;;;31.20;14.70;;;7.30;90.10;;;;;;4956592;29;20051;-75
2021/10/16 07:50:44;;;;;;;20.83;11.80;;;7.30;90.10;;;;;;4957901;29;20068;-75
2021/10/16 07:53:11;;;;;;;20.83;11.88;;;7.50;90.10;;;;;;4956394;29;20055;-75
2021/10/16 07:55:39;;;;;;;22.08;11.68;;;7.50;90.10;;;;;;4957862;29;20055;-75
2021/10/16 07:58:06;;;;;;;18.73;12.20;;;7.70;90.00;;;;;;4957665;29;20050;-75
2021/10/16 08:00:34;;;;;;;25.60;13.20;;;7.70;89.90;;;;;;4940048;29;20074;-75
2021/10/16 08:03:02;;;;;;;20.83;12.55;;;7.80;89.80;;;;;;4956142;29;20373;-75
2021/10/16 08:05:29;;;;;;;19.42;11.93;;;7.90;89.70;;;;;;4957266;28;20043;-74
2021/10/16 08:07:58;;;;;;;23.45;12.48;;;8.00;89.60;;;;;;4957670;29;20369;-75
2021/10/16 08:10:27;;;;;;;21.48;12.63;;;8.10;89.50;;;;;;4939519;29;20059;-79
2021/10/16 08:12:54;;;;;;;19.85;12.57;;;8.20;89.40;;;;;;4955712;29;20062;-74
2021/10/16 08:15:22;;;;;;;18.08;12.20;;;8.20;89.30;;;;;;4957093;29;20054;-74
2021/10/16 08:17:50;;;;;;;20.98;12.48;;;8.30;89.30;;;;;;4955502;29;20058;-74
2021/10/16 08:20:17;;;;;;;23.25;12.35;;;8.40;89.20;;;;;;4956843;29;20054;-73
2021/10/16 08:22:45;;;;;;;18.30;11.55;;;8.40;89.10;;;;;;4956262;29;20066;-74
2021/10/16 08:25:13;;;;;;;19.83;11.93;;;8.50;89.10;;;;;;4955788;29;20052;-74
2021/10/16 08:27:41;;;;;;;19.65;11.38;;;8.60;89.00;;;;;;4956741;28;20079;-73
2021/10/16 08:30:10;;;;;;;17.83;10.68;;;8.60;88.90;;;;;;4956189;29;20047;-78
2021/10/16 08:32:39;;;;;;;18.65;11.10;;;8.70;88.80;;;;;;4955248;29;20408;-74
2021/10/16 08:35:08;;;;;;;19.83;11.52;;;8.70;88.70;;;;;;4971955;28;20073;-73
2021/10/16 08:37:36;;;;;;;22.00;10.98;;;8.80;88.60;;;;;;4956457;29;20051;-74
2021/10/16 08:40:05;;;;;;;17.13;10.77;;;8.80;88.60;;;;;;4955655;29;20054;-74
2021/10/16 08:42:33;;;;;;;21.98;11.27;;;8.90;88.60;;;;;;4955184;29;20393;-74
2021/10/16 08:45:03;;;;;;;18.70;10.98;;;8.90;88.50;;;;;;4956073;29;20400;-76
2021/10/16 08:47:36;;;;;;;16.45;10.88;;;9.00;88.40;;;;;;4955985;28;20063;-73
2021/10/16 08:50:07;;;;;;;15.90;10.35;;;9.10;88.20;;;;;;4956724;29;20481;-77
2021/10/16 08:52:36;;;;;;;18.95;9.50;;;9.20;88.10;;;;;;4956390;29;20054;-76
2021/10/16 08:55:05;;;;;;;15.35;9.00;;;9.30;87.90;;;;;;4956052;29;20051;-74
2021/10/16 08:57:35;;;;;;;15.77;8.73;;;9.30;87.80;;;;;;4971005;28;20069;-77
2021/10/16 09:00:38;;;;;;;15.15;9.40;;;9.40;87.70;;;;;;4955497;28;20051;-73
2021/10/16 09:03:18;;;;;;;13.02;8.68;;;9.50;87.40;;;;;;4955333;29;20054;-73
2021/10/16 09:06:03;;;;;;;13.05;9.70;;;9.60;87.30;;;;;;4938469;29;20047;-73
2021/10/16 09:08:58;;;;;;;15.30;10.27;;;9.70;87.20;;;;;;4956264;29;20051;-73
2021/10/16 09:11:38;;;;;;;16.15;9.02;;;9.80;87.00;;;;;;4955843;28;20066;-73
2021/10/16 09:14:20;;;;;;;13.18;8.30;;;9.90;86.80;;;;;;4954656;29;20059;-73
2021/10/16 09:16:56;;;;;;;13.13;8.00;;;9.90;86.70;;;;;;4956401;29;20051;-73
2021/10/16 09:19:30;;;;;;;16.63;8.07;;;10.00;86.50;;;;;;4956585;29;20436;-73
2021/10/16 09:22:03;;;;;;;14.52;8.52;;;10.10;86.50;;;;;;4939720;29;20060;-73
2021/10/16 09:24:34;;;;;;;15.88;8.75;;;10.10;86.40;;;;;;4954652;29;20051;-72
2021/10/16 09:27:07;;;;;;;15.73;8.18;;;10.20;86.30;;;;;;4954773;28;20050;-73
2021/10/16 09:29:37;;;;;;;16.45;8.75;;;10.30;86.10;;;;;;4955928;29;20388;-74
2021/10/16 09:32:11;;;;;;;17.25;8.63;;;10.30;85.90;;;;;;4955343;29;20058;-73
2021/10/16 09:34:42;;;;;;;17.10;8.27;;;10.30;85.90;;;;;;4955835;29;20043;-77
2021/10/16 09:37:15;;;;;;;17.10;8.27;;;10.40;85.80;;;;;;4938888;29;20050;-76
2021/10/16 09:39:55;;;;;;;19.65;8.25;;;10.50;85.50;;;;;;4955265;29;20043;-74
2021/10/16 09:42:42;;;;;;;14.05;7.90;;;10.50;85.40;;;;;;4938991;29;20055;-73
2021/10/16 09:45:14;;;;;;;15.40;8.07;;;10.50;85.30;;;;;;4956252;29;20427;-73
2021/10/16 09:47:55;;;;;;;20.02;7.70;;;10.50;85.20;;;;;;4938582;29;20043;-74
2021/10/16 09:50:24;;;;;;;10.65;6.70;;;10.50;85.10;;;;;;4955961;29;20483;-73
2021/10/16 09:52:53;;;;;;;15.73;7.78;;;10.60;85.00;;;;;;4955691;29;20400;-74
2021/10/16 09:55:21;;;;;;;16.50;8.30;;;10.60;84.80;;;;;;4954709;29;20058;-73
2021/10/16 09:57:49;;;;;;;16.13;8.15;;;10.60;84.70;;;;;;4955519;29;20051;-73
2021/10/16 10:00:17;;;;;;;14.40;7.60;;;10.60;84.60;;;;;;4937117;29;20055;-73
2021/10/16 10:02:50;;;;;;;14.73;7.80;;;10.60;84.50;;;;;;4955064;29;20489;-73
2021/10/16 10:05:19;;;;;;;;;;;10.60;84.60;;;;;;4955532;29;20048;-73
2021/10/16 10:07:48;;;;;;;18.35;7.30;;;10.70;84.60;;;;;;4954785;29;20344;-73
2021/10/16 10:10:16;;;;;;;14.57;8.40;;;10.80;84.40;;;;;;4969688;28;20066;-73
2021/10/16 10:12:45;;;;;;;13.90;7.43;;;10.80;84.30;;;;;;4955564;29;20051;-74
2021/10/16 10:15:18;;;;;;;12.50;7.18;;;10.90;84.30;;;;;;4955480;29;20050;-74
2021/10/16 10:17:47;;;;;;;14.32;7.38;;;11.00;84.30;;;;;;4954669;29;20059;-74
2021/10/16 10:20:15;;;;;;;15.63;8.07;;;11.20;84.20;;;;;;4954880;29;20054;-74
2021/10/16 10:22:44;;;;;;;16.05;8.05;;;11.30;84.10;;;;;;4954446;29;20058;-74
2021/10/16 10:25:25;;;;;;;14.82;9.27;;;11.40;84.10;;;;;;4954840;29;20044;-73
2021/10/16 10:27:55;;;;;;;14.70;8.50;;;11.50;84.10;;;;;;4954879;29;20049;-73
2021/10/16 10:30:39;;;;;;;15.07;8.65;;;11.70;83.90;;;;;;4954559;29;20055;-73
2021/10/16 10:33:15;;;;;;;14.57;8.50;;;11.80;83.50;;;;;;4954093;29;20055;-74
2021/10/16 10:36:03;;;;;;;13.13;8.07;;;11.90;83.20;;;;;;4955087;29;20054;-73
2021/10/16 10:38:33;;;;;;;14.45;9.02;;;12.00;83.10;;;;;;4955018;29;20485;-73
2021/10/16 10:41:22;;;;;;;14.13;8.43;;;12.10;82.80;;;;;;4954945;29;20043;-73
2021/10/16 10:43:54;;;;;;;12.75;8.10;;;12.20;82.80;;;;;;4938283;29;20047;-73
2021/10/16 10:46:24;;;;;;;12.40;8.25;;;12.30;82.60;;;;;;4937896;29;20058;-73
2021/10/16 10:48:52;;;;;;;11.38;7.20;;;12.40;82.30;;;;;;4937333;29;20058;-73
2021/10/16 10:51:35;;;;;;;14.77;8.27;;;12.50;82.10;;;;;;4954598;29;20055;-73
2021/10/16 10:54:19;;;;;;;15.00;7.78;;;12.60;81.80;;;;;;4937917;29;20389;-74
2021/10/16 10:56:56;;;;;;;13.90;8.00;;;12.70;81.60;;;;;;4954387;29;20047;-73
2021/10/16 10:59:23;;;;;;;11.35;7.75;;;12.80;81.50;;;;;;4954042;29;20051;-74
2021/10/16 11:02:06;;;;;;;12.23;7.28;;;12.90;81.10;;;;;;4954987;29;20046;-74
2021/10/16 11:04:38;;;;;;;16.30;7.90;;;13.00;80.80;;;;;;4954757;29;20051;-74
2021/10/16 11:07:10;;;;;;;15.63;7.60;;;13.20;80.60;;;;;;4954866;29;20059;-74
2021/10/16 11:09:39;;;;;;;16.85;8.20;;;13.30;80.30;;;;;;4937535;29;20058;-73
2021/10/16 11:12:07;;;;;;;14.93;7.65;;;13.40;80.10;;;;;;4940587;29;20059;-74
2021/10/16 11:14:38;;;;;;;12.40;7.40;;;13.50;79.50;;;;;;4972714;28;20409;-73
2021/10/16 11:17:09;;;;;;;15.27;7.22;;;13.70;79.50;;;;;;4958795;29;20066;-73
2021/10/16 11:19:49;;;;;;;10.35;6.88;;;13.80;78.80;;;;;;4960639;29;20062;-74
2021/10/16 11:22:18;;;;;;;15.68;8.15;;;13.90;78.00;;;;;;4958134;29;20106;-74
2021/10/16 11:24:46;;;;;;;13.35;8.63;;;14.00;77.90;;;;;;4957684;29;20054;-74
2021/10/16 11:27:21;;;;;;;15.05;9.05;;;14.10;77.90;;;;;;4957833;29;20373;-75
2021/10/16 11:29:49;;;;;;;16.23;8.95;;;14.20;77.60;;;;;;4941272;29;20055;-74
2021/10/16 11:32:23;;;;;;;14.98;8.60;;;14.30;77.40;;;;;;4957639;29;20384;-75
2021/10/16 11:35:06;;;;;;;10.63;8.00;;;14.40;77.60;;;;;;4958439;29;20460;-75
2021/10/16 11:37:48;;;;;;;16.63;8.77;;;14.50;77.10;;;;;;4956486;29;20481;-73
2021/10/16 11:40:18;;;;;;;12.70;8.88;;;14.60;77.00;;;;;;4957563;29;20047;-75
2021/10/16 11:42:59;;;;;;;14.00;8.70;;;14.70;76.80;;;;;;4957383;29;20488;-74
2021/10/16 11:45:29;;;;;;;15.02;9.65;;;14.80;76.40;;;;;;4957859;29;20055;-75
2021/10/16 11:48:00;;;;;;;18.50;11.85;;;14.90;76.40;;;;;;4957595;29;20059;-73
2021/10/16 11:50:31;;;;;;;19.05;10.90;;;15.10;76.30;;;;;;4957947;29;20062;-75
2021/10/16 11:53:17;;;;;;;14.32;10.10;;;15.20;75.50;;;;;;4940910;29;20059;-74
2021/10/16 11:55:54;;;;;;;15.25;9.65;;;15.20;75.40;;;;;;4957227;29;20051;-74
2021/10/16 11:58:23;;;;;;;19.75;10.27;;;15.20;75.90;;;;;;4956101;29;20413;-75
2021/10/16 12:00:59;;;;;;;24.65;10.65;;;15.30;75.70;;;;;;4956374;29;20528;-75
2021/10/16 12:03:44;;;;;;;18.33;10.98;;;15.50;75.80;;;;;;4940290;29;20069;-75
2021/10/16 12:06:17;;;;;;;16.15;11.70;;;15.70;75.50;;;;;;4957493;29;20043;-72
2021/10/16 12:08:50;;;;;;;16.42;10.90;;;15.90;74.00;;;;;;4957442;29;20070;-84
2021/10/16 12:11:30;;;;;;;16.65;11.82;;;16.00;73.10;;;;;;4957068;29;20054;-74
2021/10/16 12:14:00;;;;;;;16.20;11.48;;;16.00;72.00;;;;;;4957575;29;20058;-75
2021/10/16 12:16:42;;;;;;;19.42;12.93;;;15.90;72.20;;;;;;4940705;29;20063;-74
2021/10/16 12:19:12;;;;;;;18.70;12.88;;;16.00;72.30;;;;;;4939886;29;20051;-74
2021/10/16 12:21:44;;;;;;;19.13;11.55;;;16.10;72.50;;;;;;4957261;29;20051;-73
2021/10/16 12:24:20;;;;;;;18.98;11.13;;;16.20;72.20;;;;;;4956262;28;20058;-74
2021/10/16 12:26:49;;;;;;;18.38;11.45;;;16.30;71.30;;;;;;4939223;29;20051;-73
2021/10/16 12:29:31;;;;;;;15.50;11.55;;;16.30;71.40;;;;;;4956700;29;20142;-74
2021/10/16 12:31:59;;;;;;;15.13;10.23;;;16.30;70.90;;;;;;4957062;29;20051;-74
2021/10/16 12:34:29;;;;;;;16.45;10.82;;;16.30;70.80;;;;;;4956309;29;20063;-75
2021/10/16 12:37:05;;;;;;;12.82;9.57;;;16.30;71.00;;;;;;4956291;29;20124;-75
2021/10/16 12:39:38;;;;;;;17.80;10.20;;;16.30;70.70;;;;;;4956196;29;20047;-75
2021/10/16 12:42:28;;;;;;;;;;;16.30;70.80;;;;;;4957089;29;20048;-75
2021/10/16 12:45:06;;;;;;;19.95;10.60;;;16.30;70.60;;;;;;4956435;28;19923;-75
2021/10/16 12:47:33;;;;;;;22.48;11.60;;;16.30;71.10;;;;;;4939729;29;20039;-74
2021/10/16 12:50:06;;;;;;;17.33;11.63;;;16.20;71.20;;;;;;4955786;29;20052;-75
2021/10/16 12:52:44;;;;;;;19.37;11.67;;;16.10;71.20;;;;;;4956744;29;20051;-75
2021/10/16 12:55:11;;;;;;;15.57;11.35;;;15.80;71.70;;;;;;4956673;29;20047;-75
2021/10/16 12:58:00;;;;;;;22.23;12.20;;;15.70;72.20;;;;;;4956003;29;20051;-75
2021/10/16 13:00:30;;;;;;;15.93;11.40;;;15.60;73.00;;;;;;4939160;29;20058;-75
2021/10/16 13:02:58;;;;;;;16.80;11.45;;;15.40;73.20;;;;;;4955673;29;20039;-75
2021/10/16 13:05:28;;;;;;;19.02;11.18;;;15.40;73.50;;;;;;4939159;29;20051;-75
2021/10/16 13:07:57;;;;;;;18.48;12.02;;;15.40;73.80;;;;;;4955648;29;20047;-75
2021/10/16 13:10:25;;;;;;;15.02;10.88;;;15.40;74.00;;;;;;4955540;29;20046;-75
2021/10/16 13:12:53;;;;;;;18.40;10.52;;;15.60;73.90;;;;;;4956361;29;20473;-75
2021/10/16 13:15:22;;;;;;;15.13;10.43;;;15.80;73.80;;;;;;4923598;29;20054;-75
2021/10/16 13:17:50;;;;;;;19.02;10.70;;;16.00;73.40;;;;;;4957641;29;20062;-75
2021/10/16 13:20:18;;;;;;;14.93;10.23;;;16.30;72.80;;;;;;4957697;29;20059;-75
2021/10/16 13:22:45;;;;;;;19.45;10.80;;;16.70;72.10;;;;;;4955218;29;20062;-75
2021/10/16 13:25:15;;;;;;;17.65;11.02;;;16.90;71.50;;;;;;4969913;28;20059;-75
2021/10/16 13:27:45;;;;;;;17.20;10.38;;;17.00;70.70;;;;;;4955112;29;20051;-75
2021/10/16 13:30:17;;;;;;;16.05;10.25;;;17.10;69.90;;;;;;4938709;29;20051;-75